Showing 1 to 100 of 354 results
Race Number First Name Surname Gender Gender Position Category Category Position Club Gun Time Overall Position Chip Time Chip Position
130 Martin Green Male 1 MV40 1 North Wales Road Runners 00:36:36 1 00:36:35 1
273 Darren Blazier Male 2 MV40 2 Abergele Harriers 00:37:04 2 00:37:03 2
277 Simon Roberts Male 3 MV40 3 Buckley Runners 00:37:26 3 00:37:25 3
385 Chris Griffiths Male 4 MV35 1 00:38:25 4 00:38:24 4
174 Robert Jones Male 5 MSENIOR 1 Wrexham AAC 00:39:25 5 00:39:24 5
242 Thomas Spence Male 6 MSENIOR 2 Wrexham AAC 00:39:34 6 00:39:33 6
378 Craig Davies Male 7 MV40 4 Deestriders RC 00:40:00 7 00:39:59 7
305 Tristan Henry Male 8 MSENIOR 3 Deeside AAC 00:40:05 8 00:40:04 8
186 Mike Roberts Male 9 MSENIOR 4 00:40:17 9 00:40:17 9
108 Andy Casey Male 10 MV40 5 00:40:28 10 00:40:24 10
258 Gavin Rogers Male 11 MSENIOR 5 00:40:38 11 00:40:37 11
76 Helen Davies Female 1 FV45 1 Wrecsam Tri 00:40:48 12 00:40:46 12
205 Mark Ashley Male 12 MV35 2 00:41:26 13 00:41:18 13
7 Michael Austin Male 13 MV40 6 Buckley Runners 00:41:36 14 00:41:35 14
193 Christopher Stephens Male 14 MV45 1 00:42:01 15 00:41:40 15
62 Gary O'Connor Male 15 MV45 2 Helsby 00:42:10 16 00:42:08 16
311 Lawrence Henry Male 16 MJUNIOR 1 Deeside AAC 00:42:20 17 00:42:16 17
390 Arwel Lewis Male 17 MV55 1 Eryri Harriers 00:42:49 18 00:42:48 18
272 David Millington Male 18 MV40 7 Wrexham AAC 00:42:50 19 00:42:49 19
105 Charlie Croasdale Male 19 MSENIOR 6 00:43:36 20 00:43:33 20
268 Alistair Holl Male 20 MV40 8 00:43:43 21 00:43:40 21
379 David Hughes Male 21 MV45 3 Oswestry Olympians 00:43:53 22 00:43:50 24
140 Andrew McKenzie Male 22 MSENIOR 7 00:43:54 23 00:43:49 22
10 Martin Wynn Male 23 MV50 1 00:43:56 24 00:43:54 25
327 Stephen Bellis Male 24 MV55 2 Buckley Runners 00:44:05 25 00:44:04 27
46 Daniel Jones Male 25 MSENIOR 8 00:44:13 26 00:43:50 23
139 Chris Edwards Male 26 MSENIOR 9 00:44:14 27 00:43:55 26
234 Ryan Davidson Male 27 MSENIOR 10 00:44:30 28 00:44:26 28
151 Allen Smith Male 28 MV55 3 Buckley Runners 00:44:32 29 00:44:29 29
338 Rob Mahoney Male 29 MSENIOR 11 Buckley Runners 00:44:34 30 00:44:31 30
361 Jon Bowyer Male 30 MV45 4 00:44:41 31 00:44:33 31
269 Debbie Holl Female 2 FV40 1 00:44:44 32 00:44:41 33
362 Paul Ballimger Male 31 MV55 4 00:44:51 33 00:44:40 32
248 Paul Morris Male 32 MV40 9 00:44:58 34 00:44:54 36
360 Stuart Davies Male 33 MV35 3 00:45:04 35 00:44:50 35
294 Gareth Vale Male 34 MJUNIOR 2 00:45:05 36 00:44:49 34
270 Russ Cheetham Male 35 MV45 5 Prestatyn Running Club 00:45:13 37 00:45:11 37
228 Jamie Willams Male 36 MV40 10 00:45:19 38 00:45:12 38
340 Gareth Denman Male 37 MV35 4 00:45:23 39 00:45:20 39
66 Lee Wasnidge Male 38 MV45 6 00:45:37 40 00:45:37 42
106 Huw Roberts Male 39 MV40 11 00:45:40 41 00:45:34 40
9 Luke Crofts Male 40 MV35 5 00:45:42 42 00:45:35 41
178 David Graham Male 41 MV35 6 00:45:46 43 00:45:40 43
260 Sarah Ryder Female 3 FV40 2 00:45:56 44 00:45:47 44
375 Vincent Edwards Male 42 MV55 5 Deestriders RC 00:46:12 45 00:45:53 45
239 Sian Beck Female 4 FV35 1 Prestatyn Running Club 00:46:13 46 00:46:12 46
214 Stephen Salisbury Male 43 MSENIOR 12 00:46:20 47 00:46:16 47
384 Lon Hooson Male 44 MV40 12 00:46:24 48 00:46:22 48
337 Paul Donohogue Male 45 MV45 7 Buckley Runners 00:46:34 49 00:46:29 49
364 David Taylor Male 46 MV40 13 00:46:46 50 00:46:41 50
86 David Roe Male 47 MSENIOR 13 00:46:51 51 00:46:42 51
349 Douglas Watts Male 48 MV50 2 00:47:10 52 00:47:08 54
209 Wayne Birbeck Male 49 MV50 3 00:47:14 53 00:47:09 55
343 Trevor Tommy Male 50 MV50 4 00:47:14 54 00:47:00 53
11 Mark Evans Male 51 MV55 6 Oswestry Olympians 00:47:16 55 00:47:15 58
245 Stephen Seward Male 52 MV40 14 00:47:16 56 00:47:00 52
387 David Griffiths Male 53 MV45 8 00:47:20 57 00:47:12 56
235 Gareth Roberts Male 54 MV40 15 Prestatyn Running Club 00:47:24 58 00:47:13 57
58 Mark Dunning Male 55 MSENIOR 14 00:47:28 59 00:47:22 60
296 Neil Beardmore Male 56 MV35 7 00:47:31 60 00:47:28 61
278 Neil Balderstone Male 57 MV35 8 00:47:41 61 00:47:16 59
339 Robert White Male 58 MV35 9 00:47:59 62 00:47:41 62
372 Ricky West Male 59 MV40 16 00:48:01 63 00:48:00 64
52 Chris Speed Male 60 MSENIOR 15 00:48:07 64 00:47:58 63
215 Ian Hogg Male 61 MV45 9 00:48:09 65 00:48:04 66
48 Paul Conlon Male 62 MV45 10 00:48:15 66 00:48:04 65
143 Kevin Dixon Male 63 MV55 7 00:48:32 67 00:48:28 68
255 Paul Hodge Male 64 MV40 17 00:48:38 68 00:48:30 69
161 Simon Wilde Male 65 MV40 18 00:48:47 69 00:48:42 70
288 Matt Davison Male 66 MSENIOR 16 00:48:48 70 00:48:21 67
147 Chris Gibbons Male 67 MV35 10 00:48:48 71 00:48:47 72
328 Iwan Pullen Male 68 MJUNIOR 3 Wrecsam Tri 00:48:52 72 00:48:47 71
380 Kevin Higgins Male 69 MV50 5 North Wales Road Runners 00:49:03 73 00:49:01 73
363 Alan Jones Male 70 MV45 11 Prestatyn Running Club 00:49:06 74 00:49:06 75
280 Michael Dunning Male 71 MSENIOR 17 00:49:08 75 00:49:02 74
312 Geoff Richards Male 72 MV60 1 00:49:19 76 00:49:13 77
26 Wyn Davies Male 73 MV40 19 City of Chester Triathlon Club 00:49:22 77 00:49:20 78
231 Michael Mort Male 74 MV35 11 00:49:32 78 00:49:22 79
389 Gwyn Jones Male 75 MV40 20 00:49:37 79 00:49:09 76
203 Joe Morrissey Male 76 MV35 12 00:49:43 80 00:49:37 82
142 Mark Broomfield Male 77 MV45 12 00:49:43 81 00:49:24 80
354 Mark Blakemore Male 78 MV50 6 00:49:50 82 00:49:48 85
309 Nathan Winstanley Male 79 MV35 13 00:49:54 83 00:49:42 83
116 Peter Doran Male 80 MV45 13 00:49:54 84 00:49:37 81
183 Andy Affleck Male 81 MV50 7 00:49:57 85 00:49:46 84
18 Hayley Evans Female 5 FV35 2 Buckley Runners 00:50:00 86 00:49:53 86
319 Jane Lindley Female 6 FV45 2 Buckley Runners 00:50:02 87 00:49:57 87
50 Chris Birch Female 7 FV65 1 Abergele Harriers 00:50:25 88 00:50:23 90
118 Matt Johnson Male 82 MV40 21 00:50:28 89 00:50:20 89
156 Matthew Bellis Male 83 MSENIOR 18 00:50:36 90 00:50:19 88
232 Gary Field Male 84 MSENIOR 19 00:50:38 91 00:50:34 93
352 Richard Whale Male 85 MV40 22 00:50:39 92 00:50:27 91
351 David Smith Male 86 MV40 23 00:50:39 93 00:50:32 92
53 Adam Williams Male 87 MV40 24 00:50:45 94 00:50:39 94
376 Lesley Phoenix Female 8 FSENIOR 1 00:50:50 95 00:50:48 95
213 Shaun Taylor Male 88 MSENIOR 20 00:51:00 96 00:51:00 100
359 Nick Laing Male 89 MV45 14 00:51:02 97 00:50:57 97
358 Sion Williams Male 90 MV45 15 00:51:03 98 00:50:57 98
173 Stephen Hatfield Male 91 MV65 1 Prestatyn Running Club 00:51:08 99 00:50:57 96
73 Gareth Burroughes Male 92 MV35 14 00:51:22 100 00:51:00 101